sensor_id;sensor_type;location;lat;lon;timestamp;temperature;humidity
3504;DHT22;1766;53.490;10.174;2023-07-29T00:01:46;26.10;61.50
3504;DHT22;1766;53.490;10.174;2023-07-29T00:03:50;26.10;61.50
3504;DHT22;1766;53.490;10.174;2023-07-29T00:05:57;26.10;61.70
3504;DHT22;1766;53.490;10.174;2023-07-29T00:07:59;26.10;61.90
3504;DHT22;1766;53.490;10.174;2023-07-29T00:10:00;26.10;61.80
3504;DHT22;1766;53.490;10.174;2023-07-29T00:12:04;26.00;61.90
3504;DHT22;1766;53.490;10.174;2023-07-29T00:14:05;26.00;62.20
3504;DHT22;1766;53.490;10.174;2023-07-29T00:16:07;26.00;62.20
3504;DHT22;1766;53.490;10.174;2023-07-29T00:18:09;26.00;62.30
3504;DHT22;1766;53.490;10.174;2023-07-29T00:20:11;26.00;62.30
3504;DHT22;1766;53.490;10.174;2023-07-29T00:22:14;26.00;62.40
3504;DHT22;1766;53.490;10.174;2023-07-29T00:24:16;26.00;62.70
3504;DHT22;1766;53.490;10.174;2023-07-29T00:26:18;26.00;62.80
3504;DHT22;1766;53.490;10.174;2023-07-29T00:28:22;25.90;62.50
3504;DHT22;1766;53.490;10.174;2023-07-29T00:30:24;25.90;62.50
3504;DHT22;1766;53.490;10.174;2023-07-29T00:32:26;25.90;62.70
3504;DHT22;1766;53.490;10.174;2023-07-29T00:34:28;25.90;62.80
3504;DHT22;1766;53.490;10.174;2023-07-29T00:36:31;25.90;62.50
3504;DHT22;1766;53.490;10.174;2023-07-29T00:38:34;25.80;62.40
3504;DHT22;1766;53.490;10.174;2023-07-29T00:40:36;25.90;62.50
3504;DHT22;1766;53.490;10.174;2023-07-29T00:42:39;25.80;62.70
3504;DHT22;1766;53.490;10.174;2023-07-29T00:44:42;25.80;62.60
3504;DHT22;1766;53.490;10.174;2023-07-29T00:46:46;25.70;62.70
3504;DHT22;1766;53.490;10.174;2023-07-29T00:48:48;25.70;63.00
3504;DHT22;1766;53.490;10.174;2023-07-29T00:50:51;25.70;62.80
3504;DHT22;1766;53.490;10.174;2023-07-29T00:52:53;25.60;62.90
3504;DHT22;1766;53.490;10.174;2023-07-29T00:54:56;25.60;63.10
3504;DHT22;1766;53.490;10.174;2023-07-29T00:56:58;25.60;63.00
3504;DHT22;1766;53.490;10.174;2023-07-29T00:59:01;25.50;63.10
3504;DHT22;1766;53.490;10.174;2023-07-29T01:01:05;25.50;63.50
3504;DHT22;1766;53.490;10.174;2023-07-29T01:03:06;25.50;63.40
3504;DHT22;1766;53.490;10.174;2023-07-29T01:05:11;25.50;63.60
3504;DHT22;1766;53.490;10.174;2023-07-29T01:07:20;25.40;63.90
3504;DHT22;1766;53.490;10.174;2023-07-29T01:09:31;25.40;64.00
3504;DHT22;1766;53.490;10.174;2023-07-29T01:11:47;25.30;63.90
3504;DHT22;1766;53.490;10.174;2023-07-29T01:13:57;25.30;64.10
3504;DHT22;1766;53.490;10.174;2023-07-29T01:16:07;25.30;64.60
3504;DHT22;1766;53.490;10.174;2023-07-29T01:18:18;25.20;64.60
3504;DHT22;1766;53.490;10.174;2023-07-29T01:20:24;25.20;64.60
3504;DHT22;1766;53.490;10.174;2023-07-29T01:22:27;25.20;64.80
3504;DHT22;1766;53.490;10.174;2023-07-29T01:24:30;25.20;64.80
3504;DHT22;1766;53.490;10.174;2023-07-29T01:26:31;25.30;65.00
3504;DHT22;1766;53.490;10.174;2023-07-29T01:28:33;25.20;65.00
3504;DHT22;1766;53.490;10.174;2023-07-29T01:30:39;25.20;65.10
3504;DHT22;1766;53.490;10.174;2023-07-29T01:32:45;25.20;65.50
3504;DHT22;1766;53.490;10.174;2023-07-29T01:34:56;25.20;65.70
3504;DHT22;1766;53.490;10.174;2023-07-29T01:37:04;25.20;65.80
3504;DHT22;1766;53.490;10.174;2023-07-29T01:39:10;25.10;65.70
3504;DHT22;1766;53.490;10.174;2023-07-29T01:41:14;25.10;65.80
3504;DHT22;1766;53.490;10.174;2023-07-29T01:43:17;25.10;66.00
3504;DHT22;1766;53.490;10.174;2023-07-29T01:45:24;25.00;66.00
3504;DHT22;1766;53.490;10.174;2023-07-29T01:47:26;25.00;66.20
3504;DHT22;1766;53.490;10.174;2023-07-29T01:49:27;25.00;66.10
3504;DHT22;1766;53.490;10.174;2023-07-29T01:51:29;24.90;66.20
3504;DHT22;1766;53.490;10.174;2023-07-29T01:53:31;25.00;66.70
3504;DHT22;1766;53.490;10.174;2023-07-29T01:55:32;25.00;67.00
3504;DHT22;1766;53.490;10.174;2023-07-29T01:57:35;25.00;67.20
3504;DHT22;1766;53.490;10.174;2023-07-29T01:59:37;25.00;67.50
3504;DHT22;1766;53.490;10.174;2023-07-29T02:01:38;25.00;67.70
3504;DHT22;1766;53.490;10.174;2023-07-29T02:03:40;25.00;67.80
3504;DHT22;1766;53.490;10.174;2023-07-29T02:05:43;25.00;68.00
3504;DHT22;1766;53.490;10.174;2023-07-29T02:07:45;25.00;68.30
3504;DHT22;1766;53.490;10.174;2023-07-29T02:09:47;25.00;68.30
3504;DHT22;1766;53.490;10.174;2023-07-29T02:11:48;25.00;68.50
3504;DHT22;1766;53.490;10.174;2023-07-29T02:13:51;25.10;68.80
3504;DHT22;1766;53.490;10.174;2023-07-29T02:15:53;25.10;69.00
3504;DHT22;1766;53.490;10.174;2023-07-29T02:17:55;25.10;68.90
3504;DHT22;1766;53.490;10.174;2023-07-29T02:19:57;25.10;69.20
3504;DHT22;1766;53.490;10.174;2023-07-29T02:22:00;25.10;69.50
3504;DHT22;1766;53.490;10.174;2023-07-29T02:24:04;25.10;69.70
3504;DHT22;1766;53.490;10.174;2023-07-29T02:26:06;25.10;69.70
3504;DHT22;1766;53.490;10.174;2023-07-29T02:28:07;25.20;69.80
3504;DHT22;1766;53.490;10.174;2023-07-29T02:30:11;25.20;70.10
3504;DHT22;1766;53.490;10.174;2023-07-29T02:32:13;25.20;69.90
3504;DHT22;1766;53.490;10.174;2023-07-29T02:34:18;25.20;70.00
3504;DHT22;1766;53.490;10.174;2023-07-29T02:36:20;25.20;70.20
3504;DHT22;1766;53.490;10.174;2023-07-29T02:38:22;25.30;70.40
3504;DHT22;1766;53.490;10.174;2023-07-29T02:40:24;25.30;70.50
3504;DHT22;1766;53.490;10.174;2023-07-29T02:42:27;25.30;70.50
3504;DHT22;1766;53.490;10.174;2023-07-29T02:44:29;25.20;70.40
3504;DHT22;1766;53.490;10.174;2023-07-29T02:46:33;25.20;70.70
3504;DHT22;1766;53.490;10.174;2023-07-29T02:48:35;25.20;70.60
3504;DHT22;1766;53.490;10.174;2023-07-29T02:50:36;25.20;70.60
3504;DHT22;1766;53.490;10.174;2023-07-29T02:52:38;25.20;70.90
3504;DHT22;1766;53.490;10.174;2023-07-29T02:54:41;25.20;71.10
3504;DHT22;1766;53.490;10.174;2023-07-29T02:56:43;25.20;71.20
3504;DHT22;1766;53.490;10.174;2023-07-29T02:58:45;25.10;71.20
3504;DHT22;1766;53.490;10.174;2023-07-29T03:00:47;25.10;71.40
3504;DHT22;1766;53.490;10.174;2023-07-29T03:02:51;25.10;71.60
3504;DHT22;1766;53.490;10.174;2023-07-29T03:04:53;25.00;71.40
3504;DHT22;1766;53.490;10.174;2023-07-29T03:06:54;25.00;71.60
3504;DHT22;1766;53.490;10.174;2023-07-29T03:08:56;25.00;71.70
3504;DHT22;1766;53.490;10.174;2023-07-29T03:10:59;25.00;71.90
3504;DHT22;1766;53.490;10.174;2023-07-29T03:13:06;25.10;72.20
3504;DHT22;1766;53.490;10.174;2023-07-29T03:15:09;25.00;71.90
3504;DHT22;1766;53.490;10.174;2023-07-29T03:17:11;25.00;72.20
3504;DHT22;1766;53.490;10.174;2023-07-29T03:19:15;25.00;72.00
3504;DHT22;1766;53.490;10.174;2023-07-29T03:21:16;25.00;72.20
3504;DHT22;1766;53.490;10.174;2023-07-29T03:23:18;25.00;72.20
3504;DHT22;1766;53.490;10.174;2023-07-29T03:25:20;25.00;72.40
3504;DHT22;1766;53.490;10.174;2023-07-29T03:27:22;25.00;72.40
3504;DHT22;1766;53.490;10.174;2023-07-29T03:29:24;24.90;72.30
3504;DHT22;1766;53.490;10.174;2023-07-29T03:31:27;24.90;72.40
3504;DHT22;1766;53.490;10.174;2023-07-29T03:33:29;24.90;72.60
3504;DHT22;1766;53.490;10.174;2023-07-29T03:35:32;24.80;72.70
3504;DHT22;1766;53.490;10.174;2023-07-29T03:37:34;24.80;72.60
3504;DHT22;1766;53.490;10.174;2023-07-29T03:39:37;24.80;72.90
3504;DHT22;1766;53.490;10.174;2023-07-29T03:41:39;24.80;73.00
3504;DHT22;1766;53.490;10.174;2023-07-29T03:43:41;24.80;73.00
3504;DHT22;1766;53.490;10.174;2023-07-29T03:45:43;24.70;72.70
3504;DHT22;1766;53.490;10.174;2023-07-29T03:47:45;24.80;73.00
3504;DHT22;1766;53.490;10.174;2023-07-29T03:49:47;24.80;73.10
3504;DHT22;1766;53.490;10.174;2023-07-29T03:51:50;24.70;73.30
3504;DHT22;1766;53.490;10.174;2023-07-29T03:53:53;24.70;73.30
3504;DHT22;1766;53.490;10.174;2023-07-29T03:55:55;24.70;73.60
3504;DHT22;1766;53.490;10.174;2023-07-29T03:57:57;24.70;73.50
3504;DHT22;1766;53.490;10.174;2023-07-29T03:59:59;24.60;74.00
3504;DHT22;1766;53.490;10.174;2023-07-29T04:02:01;24.60;74.00
3504;DHT22;1766;53.490;10.174;2023-07-29T04:04:03;24.60;74.20
3504;DHT22;1766;53.490;10.174;2023-07-29T04:06:05;24.60;74.40
3504;DHT22;1766;53.490;10.174;2023-07-29T04:08:09;24.60;74.30
3504;DHT22;1766;53.490;10.174;2023-07-29T04:10:10;24.60;74.60
3504;DHT22;1766;53.490;10.174;2023-07-29T04:12:12;24.60;74.70
3504;DHT22;1766;53.490;10.174;2023-07-29T04:14:16;24.60;75.00
3504;DHT22;1766;53.490;10.174;2023-07-29T04:16:18;24.70;75.10
3504;DHT22;1766;53.490;10.174;2023-07-29T04:18:21;24.70;75.00
3504;DHT22;1766;53.490;10.174;2023-07-29T04:20:23;24.70;74.90
3504;DHT22;1766;53.490;10.174;2023-07-29T04:22:24;24.80;74.90
3504;DHT22;1766;53.490;10.174;2023-07-29T04:24:27;24.80;75.10
3504;DHT22;1766;53.490;10.174;2023-07-29T04:26:29;24.70;75.00
3504;DHT22;1766;53.490;10.174;2023-07-29T04:28:31;24.80;75.10
3504;DHT22;1766;53.490;10.174;2023-07-29T04:30:33;24.80;75.30
3504;DHT22;1766;53.490;10.174;2023-07-29T04:32:35;24.70;75.10
3504;DHT22;1766;53.490;10.174;2023-07-29T04:34:37;24.80;75.30
3504;DHT22;1766;53.490;10.174;2023-07-29T04:36:39;24.80;75.30
3504;DHT22;1766;53.490;10.174;2023-07-29T04:38:41;24.70;75.30
3504;DHT22;1766;53.490;10.174;2023-07-29T04:40:44;24.70;75.20
3504;DHT22;1766;53.490;10.174;2023-07-29T04:42:46;24.70;75.50
3504;DHT22;1766;53.490;10.174;2023-07-29T04:44:48;24.70;75.60
3504;DHT22;1766;53.490;10.174;2023-07-29T04:46:49;24.70;75.60
3504;DHT22;1766;53.490;10.174;2023-07-29T04:48:52;24.70;75.60
3504;DHT22;1766;53.490;10.174;2023-07-29T04:50:53;24.70;75.70
3504;DHT22;1766;53.490;10.174;2023-07-29T04:52:55;24.70;75.90
3504;DHT22;1766;53.490;10.174;2023-07-29T04:54:57;24.60;75.90
3504;DHT22;1766;53.490;10.174;2023-07-29T04:57:01;24.70;76.10
3504;DHT22;1766;53.490;10.174;2023-07-29T04:59:02;24.70;76.10
3504;DHT22;1766;53.490;10.174;2023-07-29T05:01:05;24.60;76.10
3504;DHT22;1766;53.490;10.174;2023-07-29T05:03:07;24.60;76.40
3504;DHT22;1766;53.490;10.174;2023-07-29T05:05:09;24.70;76.40
3504;DHT22;1766;53.490;10.174;2023-07-29T05:07:13;24.70;76.20
3504;DHT22;1766;53.490;10.174;2023-07-29T05:09:16;24.60;76.40
3504;DHT22;1766;53.490;10.174;2023-07-29T05:11:19;24.70;76.80
3504;DHT22;1766;53.490;10.174;2023-07-29T05:13:23;24.70;76.60
3504;DHT22;1766;53.490;10.174;2023-07-29T05:15:25;24.70;76.70
3504;DHT22;1766;53.490;10.174;2023-07-29T05:17:27;24.70;76.50
3504;DHT22;1766;53.490;10.174;2023-07-29T05:19:29;24.80;76.70
3504;DHT22;1766;53.490;10.174;2023-07-29T05:21:31;24.70;76.40
3504;DHT22;1766;53.490;10.174;2023-07-29T05:23:33;24.70;76.50
3504;DHT22;1766;53.490;10.174;2023-07-29T05:25:35;24.70;76.60
3504;DHT22;1766;53.490;10.174;2023-07-29T05:27:37;24.70;76.90
3504;DHT22;1766;53.490;10.174;2023-07-29T05:29:40;24.70;76.70
3504;DHT22;1766;53.490;10.174;2023-07-29T05:31:42;24.70;76.70
3504;DHT22;1766;53.490;10.174;2023-07-29T05:33:44;24.80;76.90
3504;DHT22;1766;53.490;10.174;2023-07-29T05:35:46;24.80;76.90
3504;DHT22;1766;53.490;10.174;2023-07-29T05:37:48;24.80;76.80
3504;DHT22;1766;53.490;10.174;2023-07-29T05:39:50;24.70;76.90
3504;DHT22;1766;53.490;10.174;2023-07-29T05:41:52;24.70;76.90
3504;DHT22;1766;53.490;10.174;2023-07-29T05:43:54;24.70;76.90
3504;DHT22;1766;53.490;10.174;2023-07-29T05:45:58;24.80;77.30
3504;DHT22;1766;53.490;10.174;2023-07-29T05:48:00;24.70;77.20
3504;DHT22;1766;53.490;10.174;2023-07-29T05:50:02;24.80;77.20
3504;DHT22;1766;53.490;10.174;2023-07-29T05:52:05;24.70;77.30
3504;DHT22;1766;53.490;10.174;2023-07-29T05:54:08;24.80;77.40
3504;DHT22;1766;53.490;10.174;2023-07-29T05:56:09;24.80;77.50
3504;DHT22;1766;53.490;10.174;2023-07-29T05:58:11;24.80;77.70
3504;DHT22;1766;53.490;10.174;2023-07-29T06:00:13;24.80;77.80
3504;DHT22;1766;53.490;10.174;2023-07-29T06:02:16;24.80;78.00
3504;DHT22;1766;53.490;10.174;2023-07-29T06:04:18;24.90;78.00
3504;DHT22;1766;53.490;10.174;2023-07-29T06:06:19;24.90;78.10
3504;DHT22;1766;53.490;10.174;2023-07-29T06:08:23;25.00;78.20
3504;DHT22;1766;53.490;10.174;2023-07-29T06:10:28;25.00;77.90
3504;DHT22;1766;53.490;10.174;2023-07-29T06:12:30;25.00;78.10
3504;DHT22;1766;53.490;10.174;2023-07-29T06:14:32;25.00;77.80
3504;DHT22;1766;53.490;10.174;2023-07-29T06:16:34;25.10;78.00
3504;DHT22;1766;53.490;10.174;2023-07-29T06:18:38;25.10;78.10
3504;DHT22;1766;53.490;10.174;2023-07-29T06:20:40;25.20;78.20
3504;DHT22;1766;53.490;10.174;2023-07-29T06:22:42;25.20;78.00
3504;DHT22;1766;53.490;10.174;2023-07-29T06:24:44;25.20;77.70
3504;DHT22;1766;53.490;10.174;2023-07-29T06:26:46;25.20;77.50
3504;DHT22;1766;53.490;10.174;2023-07-29T06:28:47;25.20;77.70
3504;DHT22;1766;53.490;10.174;2023-07-29T06:30:49;25.20;77.50
3504;DHT22;1766;53.490;10.174;2023-07-29T06:32:51;25.30;77.70
3504;DHT22;1766;53.490;10.174;2023-07-29T06:34:54;25.30;77.70
3504;DHT22;1766;53.490;10.174;2023-07-29T06:36:56;25.30;77.50
3504;DHT22;1766;53.490;10.174;2023-07-29T06:38:58;25.30;77.30
3504;DHT22;1766;53.490;10.174;2023-07-29T06:41:00;25.30;77.10
3504;DHT22;1766;53.490;10.174;2023-07-29T06:43:02;25.30;77.40
3504;DHT22;1766;53.490;10.174;2023-07-29T06:45:04;25.40;77.50
3504;DHT22;1766;53.490;10.174;2023-07-29T06:47:07;25.40;77.80
3504;DHT22;1766;53.490;10.174;2023-07-29T06:49:09;25.50;78.00
3504;DHT22;1766;53.490;10.174;2023-07-29T06:51:12;25.60;78.00
3504;DHT22;1766;53.490;10.174;2023-07-29T06:53:14;25.60;77.70
3504;DHT22;1766;53.490;10.174;2023-07-29T06:55:17;25.70;77.50
3504;DHT22;1766;53.490;10.174;2023-07-29T06:57:19;25.70;77.30
3504;DHT22;1766;53.490;10.174;2023-07-29T06:59:21;25.70;77.30
3504;DHT22;1766;53.490;10.174;2023-07-29T07:01:25;25.70;77.50
3504;DHT22;1766;53.490;10.174;2023-07-29T07:03:26;25.80;77.40
3504;DHT22;1766;53.490;10.174;2023-07-29T07:05:29;25.80;77.30
3504;DHT22;1766;53.490;10.174;2023-07-29T07:07:33;25.90;77.50
3504;DHT22;1766;53.490;10.174;2023-07-29T07:09:34;26.40;77.60
3504;DHT22;1766;53.490;10.174;2023-07-29T07:11:37;25.90;77.10
3504;DHT22;1766;53.490;10.174;2023-07-29T07:13:39;26.10;77.30
3504;DHT22;1766;53.490;10.174;2023-07-29T07:15:41;26.10;76.70
3504;DHT22;1766;53.490;10.174;2023-07-29T07:17:43;26.10;76.50
3504;DHT22;1766;53.490;10.174;2023-07-29T07:19:45;26.10;76.10
3504;DHT22;1766;53.490;10.174;2023-07-29T07:21:47;26.10;75.30
3504;DHT22;1766;53.490;10.174;2023-07-29T07:23:51;26.10;75.60
3504;DHT22;1766;53.490;10.174;2023-07-29T07:25:53;26.10;75.70
3504;DHT22;1766;53.490;10.174;2023-07-29T07:27:58;26.10;75.20
3504;DHT22;1766;53.490;10.174;2023-07-29T07:30:00;26.00;75.30
3504;DHT22;1766;53.490;10.174;2023-07-29T07:32:02;26.10;75.30
3504;DHT22;1766;53.490;10.174;2023-07-29T07:34:05;26.10;75.40
3504;DHT22;1766;53.490;10.174;2023-07-29T07:36:07;26.10;75.10
3504;DHT22;1766;53.490;10.174;2023-07-29T07:38:09;26.10;75.10
3504;DHT22;1766;53.490;10.174;2023-07-29T07:40:12;26.10;75.00
3504;DHT22;1766;53.490;10.174;2023-07-29T07:42:14;26.10;74.80
3504;DHT22;1766;53.490;10.174;2023-07-29T07:44:16;26.10;74.80
3504;DHT22;1766;53.490;10.174;2023-07-29T07:46:20;26.10;74.70
3504;DHT22;1766;53.490;10.174;2023-07-29T07:48:22;27.40;75.70
3504;DHT22;1766;53.490;10.174;2023-07-29T07:50:24;26.20;74.60
3504;DHT22;1766;53.490;10.174;2023-07-29T07:52:26;26.20;74.40
3504;DHT22;1766;53.490;10.174;2023-07-29T07:54:27;26.10;74.10
3504;DHT22;1766;53.490;10.174;2023-07-29T07:56:31;26.20;74.20
3504;DHT22;1766;53.490;10.174;2023-07-29T07:58:34;26.20;74.20
3504;DHT22;1766;53.490;10.174;2023-07-29T08:00:36;26.20;74.30
3504;DHT22;1766;53.490;10.174;2023-07-29T08:02:37;26.20;74.10
3504;DHT22;1766;53.490;10.174;2023-07-29T08:04:39;26.20;74.10
3504;DHT22;1766;53.490;10.174;2023-07-29T08:06:41;26.20;73.90
3504;DHT22;1766;53.490;10.174;2023-07-29T08:08:43;26.30;74.00
3504;DHT22;1766;53.490;10.174;2023-07-29T08:10:44;26.30;74.00
3504;DHT22;1766;53.490;10.174;2023-07-29T08:12:48;26.30;73.80
3504;DHT22;1766;53.490;10.174;2023-07-29T08:14:50;26.30;73.70
3504;DHT22;1766;53.490;10.174;2023-07-29T08:16:51;26.40;73.80
3504;DHT22;1766;53.490;10.174;2023-07-29T08:18:54;26.40;73.70
3504;DHT22;1766;53.490;10.174;2023-07-29T08:20:57;26.40;73.10
3504;DHT22;1766;53.490;10.174;2023-07-29T08:23:00;26.40;73.00
3504;DHT22;1766;53.490;10.174;2023-07-29T08:25:02;26.40;72.70
3504;DHT22;1766;53.490;10.174;2023-07-29T08:27:05;26.50;72.40
3504;DHT22;1766;53.490;10.174;2023-07-29T08:29:08;26.50;72.20
3504;DHT22;1766;53.490;10.174;2023-07-29T08:31:10;26.50;71.70
3504;DHT22;1766;53.490;10.174;2023-07-29T08:33:12;26.50;71.80
3504;DHT22;1766;53.490;10.174;2023-07-29T08:35:14;26.50;71.60
3504;DHT22;1766;53.490;10.174;2023-07-29T08:37:17;26.50;71.60
3504;DHT22;1766;53.490;10.174;2023-07-29T08:39:19;26.50;71.60
3504;DHT22;1766;53.490;10.174;2023-07-29T08:41:26;26.50;71.50
3504;DHT22;1766;53.490;10.174;2023-07-29T08:43:33;26.60;71.40
3504;DHT22;1766;53.490;10.174;2023-07-29T08:45:37;26.50;71.20
3504;DHT22;1766;53.490;10.174;2023-07-29T08:47:40;26.50;71.10
3504;DHT22;1766;53.490;10.174;2023-07-29T08:49:42;26.50;71.00
3504;DHT22;1766;53.490;10.174;2023-07-29T08:51:46;26.50;70.90
3504;DHT22;1766;53.490;10.174;2023-07-29T08:53:49;26.40;70.80
3504;DHT22;1766;53.490;10.174;2023-07-29T08:55:51;26.40;70.60
3504;DHT22;1766;53.490;10.174;2023-07-29T08:57:54;26.40;70.80
3504;DHT22;1766;53.490;10.174;2023-07-29T08:59:57;26.40;71.20
3504;DHT22;1766;53.490;10.174;2023-07-29T09:02:01;26.40;71.30
3504;DHT22;1766;53.490;10.174;2023-07-29T09:04:03;26.50;71.40
3504;DHT22;1766;53.490;10.174;2023-07-29T09:06:08;26.60;71.50
3504;DHT22;1766;53.490;10.174;2023-07-29T09:08:11;26.70;71.40
3504;DHT22;1766;53.490;10.174;2023-07-29T09:10:13;26.70;71.00
3504;DHT22;1766;53.490;10.174;2023-07-29T09:12:17;26.70;70.50
3504;DHT22;1766;53.490;10.174;2023-07-29T09:14:19;26.70;69.90
3504;DHT22;1766;53.490;10.174;2023-07-29T09:16:21;26.80;69.90
3504;DHT22;1766;53.490;10.174;2023-07-29T09:18:27;26.80;69.70
3504;DHT22;1766;53.490;10.174;2023-07-29T09:20:29;26.80;69.50
3504;DHT22;1766;53.490;10.174;2023-07-29T09:22:31;26.90;69.20
3504;DHT22;1766;53.490;10.174;2023-07-29T09:24:33;26.90;69.10
3504;DHT22;1766;53.490;10.174;2023-07-29T09:26:35;26.90;68.60
3504;DHT22;1766;53.490;10.174;2023-07-29T09:28:39;27.00;68.50
3504;DHT22;1766;53.490;10.174;2023-07-29T09:30:45;27.00;68.50
3504;DHT22;1766;53.490;10.174;2023-07-29T09:32:54;27.10;68.00
3504;DHT22;1766;53.490;10.174;2023-07-29T09:34:58;27.20;68.10
3504;DHT22;1766;53.490;10.174;2023-07-29T09:37:00;27.30;67.20
3504;DHT22;1766;53.490;10.174;2023-07-29T09:39:03;27.30;66.40
3504;DHT22;1766;53.490;10.174;2023-07-29T09:41:06;27.30;65.70
3504;DHT22;1766;53.490;10.174;2023-07-29T09:43:09;27.30;66.90
3504;DHT22;1766;53.490;10.174;2023-07-29T09:45:11;27.30;65.80
3504;DHT22;1766;53.490;10.174;2023-07-29T09:47:23;27.40;65.60
3504;DHT22;1766;53.490;10.174;2023-07-29T09:49:26;27.40;65.30
3504;DHT22;1766;53.490;10.174;2023-07-29T09:51:29;27.50;64.60
3504;DHT22;1766;53.490;10.174;2023-07-29T09:53:30;27.50;64.00
3504;DHT22;1766;53.490;10.174;2023-07-29T09:55:33;27.60;63.20
3504;DHT22;1766;53.490;10.174;2023-07-29T09:57:38;27.60;63.20
3504;DHT22;1766;53.490;10.174;2023-07-29T09:59:40;27.60;63.20
3504;DHT22;1766;53.490;10.174;2023-07-29T10:01:44;27.60;62.70
3504;DHT22;1766;53.490;10.174;2023-07-29T10:03:47;27.70;62.30
3504;DHT22;1766;53.490;10.174;2023-07-29T10:05:50;27.70;61.90
3504;DHT22;1766;53.490;10.174;2023-07-29T10:07:54;27.70;61.00
3504;DHT22;1766;53.490;10.174;2023-07-29T10:09:58;27.70;60.30
3504;DHT22;1766;53.490;10.174;2023-07-29T10:12:00;27.70;60.10
3504;DHT22;1766;53.490;10.174;2023-07-29T10:14:02;27.70;59.70
3504;DHT22;1766;53.490;10.174;2023-07-29T10:16:05;27.70;59.60
3504;DHT22;1766;53.490;10.174;2023-07-29T10:18:07;27.70;59.20
3504;DHT22;1766;53.490;10.174;2023-07-29T10:20:10;27.80;58.90
3504;DHT22;1766;53.490;10.174;2023-07-29T10:22:13;27.80;58.80
3504;DHT22;1766;53.490;10.174;2023-07-29T10:24:21;27.90;58.80
3504;DHT22;1766;53.490;10.174;2023-07-29T10:26:31;28.00;58.70
3504;DHT22;1766;53.490;10.174;2023-07-29T10:28:39;28.00;58.50
3504;DHT22;1766;53.490;10.174;2023-07-29T10:30:42;28.10;58.20
3504;DHT22;1766;53.490;10.174;2023-07-29T10:32:45;28.10;57.60
3504;DHT22;1766;53.490;10.174;2023-07-29T10:34:48;28.20;57.90
3504;DHT22;1766;53.490;10.174;2023-07-29T10:36:50;28.20;56.90
3504;DHT22;1766;53.490;10.174;2023-07-29T10:38:53;28.20;57.10
3504;DHT22;1766;53.490;10.174;2023-07-29T10:40:57;28.20;56.80
3504;DHT22;1766;53.490;10.174;2023-07-29T10:43:02;28.20;56.50
3504;DHT22;1766;53.490;10.174;2023-07-29T10:45:20;28.20;56.00
3504;DHT22;1766;53.490;10.174;2023-07-29T10:47:24;28.20;55.80
3504;DHT22;1766;53.490;10.174;2023-07-29T10:49:27;28.20;55.70
3504;DHT22;1766;53.490;10.174;2023-07-29T10:51:35;28.20;55.30
3504;DHT22;1766;53.490;10.174;2023-07-29T10:53:38;28.30;55.10
3504;DHT22;1766;53.490;10.174;2023-07-29T10:55:40;28.40;54.70
3504;DHT22;1766;53.490;10.174;2023-07-29T10:57:45;28.40;54.10
3504;DHT22;1766;53.490;10.174;2023-07-29T10:59:54;28.40;53.70
3504;DHT22;1766;53.490;10.174;2023-07-29T11:01:58;28.40;53.70
3504;DHT22;1766;53.490;10.174;2023-07-29T11:06:26;28.50;53.40
3504;DHT22;1766;53.490;10.174;2023-07-29T11:08:29;28.50;53.00
3504;DHT22;1766;53.490;10.174;2023-07-29T11:10:42;28.50;53.10
3504;DHT22;1766;53.490;10.174;2023-07-29T11:12:47;28.50;52.80
3504;DHT22;1766;53.490;10.174;2023-07-29T11:14:51;28.50;52.30
3504;DHT22;1766;53.490;10.174;2023-07-29T11:16:54;28.50;52.10
3504;DHT22;1766;53.490;10.174;2023-07-29T11:18:58;28.40;52.10
3504;DHT22;1766;53.490;10.174;2023-07-29T11:21:03;28.40;52.10
3504;DHT22;1766;53.490;10.174;2023-07-29T11:23:05;28.40;52.10
3504;DHT22;1766;53.490;10.174;2023-07-29T11:25:08;28.40;51.80
3504;DHT22;1766;53.490;10.174;2023-07-29T11:27:11;28.40;51.70
3504;DHT22;1766;53.490;10.174;2023-07-29T11:29:16;28.30;51.30
3504;DHT22;1766;53.490;10.174;2023-07-29T11:31:18;28.30;51.00
3504;DHT22;1766;53.490;10.174;2023-07-29T11:33:21;28.30;51.60
3504;DHT22;1766;53.490;10.174;2023-07-29T11:35:24;28.30;51.20
3504;DHT22;1766;53.490;10.174;2023-07-29T11:37:27;28.40;50.90
3504;DHT22;1766;53.490;10.174;2023-07-29T11:39:28;28.60;50.90
3504;DHT22;1766;53.490;10.174;2023-07-29T11:41:30;28.80;50.90
3504;DHT22;1766;53.490;10.174;2023-07-29T11:43:35;28.90;50.40
3504;DHT22;1766;53.490;10.174;2023-07-29T11:45:40;29.00;49.80
3504;DHT22;1766;53.490;10.174;2023-07-29T11:47:41;29.00;49.40
3504;DHT22;1766;53.490;10.174;2023-07-29T11:49:43;29.10;49.60
3504;DHT22;1766;53.490;10.174;2023-07-29T11:51:46;29.20;49.50
3504;DHT22;1766;53.490;10.174;2023-07-29T11:53:49;29.20;48.90
3504;DHT22;1766;53.490;10.174;2023-07-29T11:55:51;29.40;48.70
3504;DHT22;1766;53.490;10.174;2023-07-29T11:57:53;29.50;48.60
3504;DHT22;1766;53.490;10.174;2023-07-29T11:59:55;29.60;48.20
3504;DHT22;1766;53.490;10.174;2023-07-29T12:02:00;29.70;47.80
3504;DHT22;1766;53.490;10.174;2023-07-29T12:04:03;29.70;47.60
3504;DHT22;1766;53.490;10.174;2023-07-29T12:06:05;29.60;47.50
3504;DHT22;1766;53.490;10.174;2023-07-29T12:08:08;29.50;47.40
3504;DHT22;1766;53.490;10.174;2023-07-29T12:10:10;29.50;47.50
3504;DHT22;1766;53.490;10.174;2023-07-29T12:12:13;29.40;47.40
3504;DHT22;1766;53.490;10.174;2023-07-29T12:14:16;29.40;47.50
3504;DHT22;1766;53.490;10.174;2023-07-29T12:16:17;29.50;47.30
3504;DHT22;1766;53.490;10.174;2023-07-29T12:18:29;29.60;46.80
3504;DHT22;1766;53.490;10.174;2023-07-29T12:20:32;29.70;46.30
3504;DHT22;1766;53.490;10.174;2023-07-29T12:22:35;29.80;46.60
3504;DHT22;1766;53.490;10.174;2023-07-29T12:24:38;29.80;45.90
3504;DHT22;1766;53.490;10.174;2023-07-29T12:26:42;29.80;45.90
3504;DHT22;1766;53.490;10.174;2023-07-29T12:28:47;29.90;45.30
3504;DHT22;1766;53.490;10.174;2023-07-29T12:30:53;30.00;45.10
3504;DHT22;1766;53.490;10.174;2023-07-29T12:32:55;30.00;45.00
3504;DHT22;1766;53.490;10.174;2023-07-29T12:34:58;30.00;44.80
3504;DHT22;1766;53.490;10.174;2023-07-29T12:37:03;29.90;44.70
3504;DHT22;1766;53.490;10.174;2023-07-29T12:39:17;30.00;44.80
3504;DHT22;1766;53.490;10.174;2023-07-29T12:41:19;30.10;45.00
3504;DHT22;1766;53.490;10.174;2023-07-29T12:43:22;30.20;44.50
3504;DHT22;1766;53.490;10.174;2023-07-29T12:45:24;30.30;44.00
3504;DHT22;1766;53.490;10.174;2023-07-29T12:47:27;30.50;43.50
3504;DHT22;1766;53.490;10.174;2023-07-29T12:49:29;30.50;42.90
3504;DHT22;1766;53.490;10.174;2023-07-29T12:51:33;30.70;42.70
3504;DHT22;1766;53.490;10.174;2023-07-29T12:53:39;30.80;42.10
3504;DHT22;1766;53.490;10.174;2023-07-29T12:55:41;30.90;41.70
3504;DHT22;1766;53.490;10.174;2023-07-29T12:57:43;31.00;41.50
3504;DHT22;1766;53.490;10.174;2023-07-29T12:59:45;31.10;41.20
3504;DHT22;1766;53.490;10.174;2023-07-29T13:01:47;31.10;41.00
3504;DHT22;1766;53.490;10.174;2023-07-29T13:03:49;31.10;40.80
3504;DHT22;1766;53.490;10.174;2023-07-29T13:05:52;31.00;40.80
3504;DHT22;1766;53.490;10.174;2023-07-29T13:07:59;30.90;40.60
3504;DHT22;1766;53.490;10.174;2023-07-29T13:10:01;30.80;40.60
3504;DHT22;1766;53.490;10.174;2023-07-29T13:12:04;30.70;40.70